Terminal Aerodrome Forecast
Issued by NWS

Home | Current Version | Previous Version | Graphics & Text | Print | Product List | Glossary On
Versions: 1 2 3 4 5 6 7 8 9 10 11 12 13 14 15 16 17
000
FTUS43 KMPX 271130
TAFAXN
TAF
KAXN 271130Z 2712/2812 24005KT P6SM BKN200
     FM271500 24010KT P6SM BKN120
     FM272000 24011KT P6SM SCT060
     FM280100 22007KT P6SM BKN090
     FM280800 29009KT P6SM SCT040=

USA.gov is the U.S. government's official web portal to all federal, state and local government web resources and services.